sensor_id;sensor_type;location;lat;lon;timestamp;P1;durP1;ratioP1;P2;durP2;ratioP2
48951;SDS011;34758;42.148;24.744;2023-08-06T00:00:24;5.80;;;3.42;;
48951;SDS011;34758;42.148;24.744;2023-08-06T00:02:53;6.32;;;4.07;;
48951;SDS011;34758;42.148;24.744;2023-08-06T00:05:19;7.63;;;4.30;;
48951;SDS011;34758;42.148;24.744;2023-08-06T00:07:48;9.05;;;4.07;;
48951;SDS011;34758;42.148;24.744;2023-08-06T00:10:15;5.78;;;3.83;;
48951;SDS011;34758;42.148;24.744;2023-08-06T00:12:42;9.23;;;3.90;;
48951;SDS011;34758;42.148;24.744;2023-08-06T00:15:10;6.78;;;3.78;;
48951;SDS011;34758;42.148;24.744;2023-08-06T00:17:37;5.80;;;3.95;;
48951;SDS011;34758;42.148;24.744;2023-08-06T00:20:06;9.27;;;4.75;;
48951;SDS011;34758;42.148;24.744;2023-08-06T00:22:35;10.20;;;4.00;;
48951;SDS011;34758;42.148;24.744;2023-08-06T00:25:03;7.13;;;4.00;;
48951;SDS011;34758;42.148;24.744;2023-08-06T00:27:35;7.35;;;4.57;;
48951;SDS011;34758;42.148;24.744;2023-08-06T00:30:03;8.18;;;4.63;;
48951;SDS011;34758;42.148;24.744;2023-08-06T00:32:31;7.13;;;4.28;;
48951;SDS011;34758;42.148;24.744;2023-08-06T00:34:59;10.43;;;4.85;;
48951;SDS011;34758;42.148;24.744;2023-08-06T00:37:28;7.65;;;4.35;;
48951;SDS011;34758;42.148;24.744;2023-08-06T00:39:56;7.40;;;3.75;;
48951;SDS011;34758;42.148;24.744;2023-08-06T00:42:24;9.20;;;4.32;;
48951;SDS011;34758;42.148;24.744;2023-08-06T00:44:51;5.55;;;4.40;;
48951;SDS011;34758;42.148;24.744;2023-08-06T00:47:18;8.73;;;4.75;;
48951;SDS011;34758;42.148;24.744;2023-08-06T00:49:47;7.47;;;3.88;;
48951;SDS011;34758;42.148;24.744;2023-08-06T00:52:14;8.23;;;4.10;;
48951;SDS011;34758;42.148;24.744;2023-08-06T00:54:42;10.32;;;4.10;;
48951;SDS011;34758;42.148;24.744;2023-08-06T00:57:10;7.40;;;3.92;;
48951;SDS011;34758;42.148;24.744;2023-08-06T00:59:37;7.80;;;4.10;;
48951;SDS011;34758;42.148;24.744;2023-08-06T01:02:06;7.75;;;4.43;;
48951;SDS011;34758;42.148;24.744;2023-08-06T01:04:41;8.93;;;3.80;;
48951;SDS011;34758;42.148;24.744;2023-08-06T01:07:11;9.88;;;4.50;;
48951;SDS011;34758;42.148;24.744;2023-08-06T01:09:50;6.22;;;3.83;;
48951;SDS011;34758;42.148;24.744;2023-08-06T01:12:25;5.65;;;3.90;;
48951;SDS011;34758;42.148;24.744;2023-08-06T01:15:11;9.93;;;4.15;;
48951;SDS011;34758;42.148;24.744;2023-08-06T01:17:43;8.70;;;4.45;;
48951;SDS011;34758;42.148;24.744;2023-08-06T01:20:12;10.10;;;4.80;;
48951;SDS011;34758;42.148;24.744;2023-08-06T01:22:40;7.43;;;4.15;;
48951;SDS011;34758;42.148;24.744;2023-08-06T01:25:08;7.63;;;4.47;;
48951;SDS011;34758;42.148;24.744;2023-08-06T01:27:36;11.02;;;4.45;;
48951;SDS011;34758;42.148;24.744;2023-08-06T01:30:08;7.22;;;4.40;;
48951;SDS011;34758;42.148;24.744;2023-08-06T01:32:44;7.78;;;4.70;;
48951;SDS011;34758;42.148;24.744;2023-08-06T01:35:13;9.88;;;4.78;;
48951;SDS011;34758;42.148;24.744;2023-08-06T01:37:47;7.28;;;4.68;;
48951;SDS011;34758;42.148;24.744;2023-08-06T01:40:15;6.07;;;4.70;;
48951;SDS011;34758;42.148;24.744;2023-08-06T01:42:41;9.77;;;4.45;;
48951;SDS011;34758;42.148;24.744;2023-08-06T01:45:09;8.05;;;4.40;;
48951;SDS011;34758;42.148;24.744;2023-08-06T01:47:37;9.85;;;4.68;;
48951;SDS011;34758;42.148;24.744;2023-08-06T01:50:07;10.77;;;4.88;;
48951;SDS011;34758;42.148;24.744;2023-08-06T01:52:34;6.40;;;4.55;;
48951;SDS011;34758;42.148;24.744;2023-08-06T01:55:03;7.60;;;4.53;;
48951;SDS011;34758;42.148;24.744;2023-08-06T01:57:31;6.10;;;4.15;;
48951;SDS011;34758;42.148;24.744;2023-08-06T01:59:58;8.40;;;4.93;;
48951;SDS011;34758;42.148;24.744;2023-08-06T02:02:25;6.53;;;4.40;;
48951;SDS011;34758;42.148;24.744;2023-08-06T02:05:03;9.63;;;4.88;;
48951;SDS011;34758;42.148;24.744;2023-08-06T02:07:34;9.77;;;4.43;;
48951;SDS011;34758;42.148;24.744;2023-08-06T02:10:04;7.75;;;4.65;;
48951;SDS011;34758;42.148;24.744;2023-08-06T02:12:31;8.52;;;4.20;;
48951;SDS011;34758;42.148;24.744;2023-08-06T02:14:58;8.07;;;4.57;;
48951;SDS011;34758;42.148;24.744;2023-08-06T02:17:26;6.45;;;4.38;;
48951;SDS011;34758;42.148;24.744;2023-08-06T02:19:53;8.43;;;4.57;;
48951;SDS011;34758;42.148;24.744;2023-08-06T02:22:20;6.13;;;4.00;;
48951;SDS011;34758;42.148;24.744;2023-08-06T02:24:48;10.00;;;5.43;;
48951;SDS011;34758;42.148;24.744;2023-08-06T02:27:18;6.03;;;4.38;;
48951;SDS011;34758;42.148;24.744;2023-08-06T02:29:46;5.72;;;4.68;;
48951;SDS011;34758;42.148;24.744;2023-08-06T02:32:15;6.53;;;4.70;;
48951;SDS011;34758;42.148;24.744;2023-08-06T02:34:42;8.38;;;4.63;;
48951;SDS011;34758;42.148;24.744;2023-08-06T02:37:13;6.00;;;4.40;;
48951;SDS011;34758;42.148;24.744;2023-08-06T02:39:40;7.45;;;4.90;;
48951;SDS011;34758;42.148;24.744;2023-08-06T02:42:08;7.32;;;4.93;;
48951;SDS011;34758;42.148;24.744;2023-08-06T02:44:36;10.93;;;5.22;;
48951;SDS011;34758;42.148;24.744;2023-08-06T02:47:04;7.90;;;5.05;;
48951;SDS011;34758;42.148;24.744;2023-08-06T02:49:31;9.35;;;5.20;;
48951;SDS011;34758;42.148;24.744;2023-08-06T02:51:58;8.85;;;5.28;;
48951;SDS011;34758;42.148;24.744;2023-08-06T02:54:25;7.45;;;5.15;;
48951;SDS011;34758;42.148;24.744;2023-08-06T02:56:55;7.72;;;5.20;;
48951;SDS011;34758;42.148;24.744;2023-08-06T02:59:22;9.00;;;5.85;;
48951;SDS011;34758;42.148;24.744;2023-08-06T03:01:51;12.68;;;6.28;;
48951;SDS011;34758;42.148;24.744;2023-08-06T03:04:19;6.85;;;5.43;;
48951;SDS011;34758;42.148;24.744;2023-08-06T03:06:46;8.90;;;6.22;;
48951;SDS011;34758;42.148;24.744;2023-08-06T03:09:13;7.90;;;6.10;;
48951;SDS011;34758;42.148;24.744;2023-08-06T03:11:41;8.88;;;6.32;;
48951;SDS011;34758;42.148;24.744;2023-08-06T03:14:08;10.48;;;7.00;;
48951;SDS011;34758;42.148;24.744;2023-08-06T03:16:35;9.82;;;8.48;;
48951;SDS011;34758;42.148;24.744;2023-08-06T03:19:03;10.63;;;7.18;;
48951;SDS011;34758;42.148;24.744;2023-08-06T03:21:30;8.35;;;7.32;;
48951;SDS011;34758;42.148;24.744;2023-08-06T03:23:58;10.32;;;7.05;;
48951;SDS011;34758;42.148;24.744;2023-08-06T03:26:28;10.57;;;7.85;;
48951;SDS011;34758;42.148;24.744;2023-08-06T03:28:56;8.75;;;7.93;;
48951;SDS011;34758;42.148;24.744;2023-08-06T03:31:23;11.73;;;7.97;;
48951;SDS011;34758;42.148;24.744;2023-08-06T03:33:50;9.23;;;7.72;;
48951;SDS011;34758;42.148;24.744;2023-08-06T03:36:18;9.63;;;7.88;;
48951;SDS011;34758;42.148;24.744;2023-08-06T03:38:45;10.45;;;8.10;;
48951;SDS011;34758;42.148;24.744;2023-08-06T03:41:12;11.70;;;8.48;;
48951;SDS011;34758;42.148;24.744;2023-08-06T03:43:39;11.40;;;8.05;;
48951;SDS011;34758;42.148;24.744;2023-08-06T03:46:08;11.60;;;7.63;;
48951;SDS011;34758;42.148;24.744;2023-08-06T03:48:35;10.25;;;9.20;;
48951;SDS011;34758;42.148;24.744;2023-08-06T03:51:02;10.90;;;7.22;;
48951;SDS011;34758;42.148;24.744;2023-08-06T03:53:33;12.63;;;8.32;;
48951;SDS011;34758;42.148;24.744;2023-08-06T03:56:01;11.90;;;8.60;;
48951;SDS011;34758;42.148;24.744;2023-08-06T03:58:29;9.93;;;7.90;;
48951;SDS011;34758;42.148;24.744;2023-08-06T04:01:01;8.90;;;8.05;;
48951;SDS011;34758;42.148;24.744;2023-08-06T04:03:31;9.63;;;8.65;;
48951;SDS011;34758;42.148;24.744;2023-08-06T04:05:58;12.27;;;9.38;;
48951;SDS011;34758;42.148;24.744;2023-08-06T04:08:26;10.88;;;9.25;;
48951;SDS011;34758;42.148;24.744;2023-08-06T04:10:54;11.18;;;9.68;;
48951;SDS011;34758;42.148;24.744;2023-08-06T04:13:22;12.75;;;9.05;;
48951;SDS011;34758;42.148;24.744;2023-08-06T04:15:49;11.45;;;9.02;;
48951;SDS011;34758;42.148;24.744;2023-08-06T04:18:19;14.20;;;9.50;;
48951;SDS011;34758;42.148;24.744;2023-08-06T04:20:46;13.57;;;10.13;;
48951;SDS011;34758;42.148;24.744;2023-08-06T04:23:14;14.70;;;9.90;;
48951;SDS011;34758;42.148;24.744;2023-08-06T04:25:42;11.05;;;9.00;;
48951;SDS011;34758;42.148;24.744;2023-08-06T04:28:11;11.98;;;9.50;;
48951;SDS011;34758;42.148;24.744;2023-08-06T04:30:37;12.35;;;10.27;;
48951;SDS011;34758;42.148;24.744;2023-08-06T04:33:06;13.43;;;10.82;;
48951;SDS011;34758;42.148;24.744;2023-08-06T04:35:33;11.60;;;10.00;;
48951;SDS011;34758;42.148;24.744;2023-08-06T04:38:00;12.40;;;10.77;;
48951;SDS011;34758;42.148;24.744;2023-08-06T04:40:27;13.63;;;11.73;;
48951;SDS011;34758;42.148;24.744;2023-08-06T04:42:54;11.82;;;10.73;;
48951;SDS011;34758;42.148;24.744;2023-08-06T04:45:23;12.45;;;11.15;;
48951;SDS011;34758;42.148;24.744;2023-08-06T04:47:50;12.73;;;10.63;;
48951;SDS011;34758;42.148;24.744;2023-08-06T04:50:17;13.50;;;11.35;;
48951;SDS011;34758;42.148;24.744;2023-08-06T04:52:44;15.00;;;12.23;;
48951;SDS011;34758;42.148;24.744;2023-08-06T04:55:11;15.57;;;11.75;;
48951;SDS011;34758;42.148;24.744;2023-08-06T04:57:38;13.90;;;12.30;;
48951;SDS011;34758;42.148;24.744;2023-08-06T05:00:06;16.52;;;13.98;;
48951;SDS011;34758;42.148;24.744;2023-08-06T05:02:38;16.75;;;13.23;;
48951;SDS011;34758;42.148;24.744;2023-08-06T05:05:05;17.67;;;13.73;;
48951;SDS011;34758;42.148;24.744;2023-08-06T05:07:32;14.48;;;12.95;;
48951;SDS011;34758;42.148;24.744;2023-08-06T05:09:59;15.68;;;13.15;;
48951;SDS011;34758;42.148;24.744;2023-08-06T05:12:29;16.25;;;13.90;;
48951;SDS011;34758;42.148;24.744;2023-08-06T05:14:56;13.93;;;12.10;;
48951;SDS011;34758;42.148;24.744;2023-08-06T05:17:23;14.57;;;13.05;;
48951;SDS011;34758;42.148;24.744;2023-08-06T05:19:53;13.93;;;12.50;;
48951;SDS011;34758;42.148;24.744;2023-08-06T05:22:24;14.18;;;12.82;;
48951;SDS011;34758;42.148;24.744;2023-08-06T05:24:51;16.83;;;12.82;;
48951;SDS011;34758;42.148;24.744;2023-08-06T05:27:19;13.90;;;12.43;;
48951;SDS011;34758;42.148;24.744;2023-08-06T05:29:46;14.38;;;12.88;;
48951;SDS011;34758;42.148;24.744;2023-08-06T05:32:14;16.50;;;10.77;;
48951;SDS011;34758;42.148;24.744;2023-08-06T05:34:41;13.10;;;10.23;;
48951;SDS011;34758;42.148;24.744;2023-08-06T05:37:10;13.50;;;9.20;;
48951;SDS011;34758;42.148;24.744;2023-08-06T05:39:37;13.57;;;8.48;;
48951;SDS011;34758;42.148;24.744;2023-08-06T05:42:05;18.10;;;8.25;;
48951;SDS011;34758;42.148;24.744;2023-08-06T05:44:33;9.23;;;8.05;;
48951;SDS011;34758;42.148;24.744;2023-08-06T05:46:59;10.25;;;5.78;;
48951;SDS011;34758;42.148;24.744;2023-08-06T05:49:26;11.52;;;5.55;;
48951;SDS011;34758;42.148;24.744;2023-08-06T05:51:53;6.80;;;5.45;;
48951;SDS011;34758;42.148;24.744;2023-08-06T05:54:26;7.80;;;4.70;;
48951;SDS011;34758;42.148;24.744;2023-08-06T05:56:53;5.60;;;4.30;;
48951;SDS011;34758;42.148;24.744;2023-08-06T05:59:20;7.28;;;4.38;;
48951;SDS011;34758;42.148;24.744;2023-08-06T06:01:48;7.90;;;4.85;;
48951;SDS011;34758;42.148;24.744;2023-08-06T06:04:14;7.20;;;4.82;;
48951;SDS011;34758;42.148;24.744;2023-08-06T06:06:41;10.25;;;5.32;;
48951;SDS011;34758;42.148;24.744;2023-08-06T06:09:08;9.75;;;4.95;;
48951;SDS011;34758;42.148;24.744;2023-08-06T06:11:37;9.63;;;5.28;;
48951;SDS011;34758;42.148;24.744;2023-08-06T06:14:07;7.45;;;4.22;;
48951;SDS011;34758;42.148;24.744;2023-08-06T06:16:35;8.80;;;4.80;;
48951;SDS011;34758;42.148;24.744;2023-08-06T06:19:01;7.32;;;4.68;;
48951;SDS011;34758;42.148;24.744;2023-08-06T06:21:29;10.50;;;5.25;;
48951;SDS011;34758;42.148;24.744;2023-08-06T06:23:56;4.97;;;4.35;;
48951;SDS011;34758;42.148;24.744;2023-08-06T06:26:23;8.77;;;4.53;;
48951;SDS011;34758;42.148;24.744;2023-08-06T06:28:56;8.73;;;5.13;;
48951;SDS011;34758;42.148;24.744;2023-08-06T06:31:24;7.18;;;4.60;;
48951;SDS011;34758;42.148;24.744;2023-08-06T06:33:50;9.63;;;4.88;;
48951;SDS011;34758;42.148;24.744;2023-08-06T06:36:19;6.82;;;4.35;;
48951;SDS011;34758;42.148;24.744;2023-08-06T06:38:49;10.50;;;5.18;;
48951;SDS011;34758;42.148;24.744;2023-08-06T06:41:15;7.78;;;5.50;;
48951;SDS011;34758;42.148;24.744;2023-08-06T06:43:45;9.43;;;4.57;;
48951;SDS011;34758;42.148;24.744;2023-08-06T06:46:13;7.47;;;5.15;;
48951;SDS011;34758;42.148;24.744;2023-08-06T06:48:42;6.53;;;4.73;;
48951;SDS011;34758;42.148;24.744;2023-08-06T06:51:09;6.82;;;5.10;;
48951;SDS011;34758;42.148;24.744;2023-08-06T06:53:36;7.38;;;5.03;;
48951;SDS011;34758;42.148;24.744;2023-08-06T06:56:03;7.82;;;4.97;;
48951;SDS011;34758;42.148;24.744;2023-08-06T06:58:31;6.55;;;5.40;;
48951;SDS011;34758;42.148;24.744;2023-08-06T07:00:59;6.97;;;5.20;;
48951;SDS011;34758;42.148;24.744;2023-08-06T07:03:35;5.93;;;4.97;;
48951;SDS011;34758;42.148;24.744;2023-08-06T07:06:02;6.35;;;5.68;;
48951;SDS011;34758;42.148;24.744;2023-08-06T07:08:30;9.73;;;5.93;;
48951;SDS011;34758;42.148;24.744;2023-08-06T07:11:01;6.82;;;4.90;;
48951;SDS011;34758;42.148;24.744;2023-08-06T07:13:29;7.13;;;5.05;;
48951;SDS011;34758;42.148;24.744;2023-08-06T07:15:55;7.20;;;5.30;;
48951;SDS011;34758;42.148;24.744;2023-08-06T07:18:23;6.88;;;5.40;;
48951;SDS011;34758;42.148;24.744;2023-08-06T07:20:52;7.45;;;5.22;;
48951;SDS011;34758;42.148;24.744;2023-08-06T07:23:21;7.28;;;5.18;;
48951;SDS011;34758;42.148;24.744;2023-08-06T07:25:52;6.30;;;5.40;;
48951;SDS011;34758;42.148;24.744;2023-08-06T07:28:19;6.82;;;5.53;;
48951;SDS011;34758;42.148;24.744;2023-08-06T07:30:46;6.60;;;5.30;;
48951;SDS011;34758;42.148;24.744;2023-08-06T07:33:13;10.48;;;5.50;;
48951;SDS011;34758;42.148;24.744;2023-08-06T07:35:41;7.78;;;5.57;;
48951;SDS011;34758;42.148;24.744;2023-08-06T07:38:09;8.73;;;6.00;;
48951;SDS011;34758;42.148;24.744;2023-08-06T07:40:37;6.68;;;5.68;;
48951;SDS011;34758;42.148;24.744;2023-08-06T07:43:05;6.35;;;5.75;;
48951;SDS011;34758;42.148;24.744;2023-08-06T07:45:32;8.35;;;6.32;;
48951;SDS011;34758;42.148;24.744;2023-08-06T07:50:32;7.97;;;6.03;;
48951;SDS011;34758;42.148;24.744;2023-08-06T07:53:00;10.10;;;7.30;;
48951;SDS011;34758;42.148;24.744;2023-08-06T07:55:28;9.60;;;6.93;;
48951;SDS011;34758;42.148;24.744;2023-08-06T07:57:57;7.50;;;6.75;;
48951;SDS011;34758;42.148;24.744;2023-08-06T08:00:26;8.00;;;6.93;;
48951;SDS011;34758;42.148;24.744;2023-08-06T08:02:54;10.15;;;7.32;;
48951;SDS011;34758;42.148;24.744;2023-08-06T08:05:23;8.15;;;7.35;;
48951;SDS011;34758;42.148;24.744;2023-08-06T08:07:52;9.32;;;7.15;;
48951;SDS011;34758;42.148;24.744;2023-08-06T08:10:19;11.32;;;7.47;;
48951;SDS011;34758;42.148;24.744;2023-08-06T08:12:48;9.38;;;7.18;;
48951;SDS011;34758;42.148;24.744;2023-08-06T08:15:16;12.25;;;8.25;;
48951;SDS011;34758;42.148;24.744;2023-08-06T08:17:44;8.05;;;7.25;;
48951;SDS011;34758;42.148;24.744;2023-08-06T08:20:14;10.38;;;8.15;;
48951;SDS011;34758;42.148;24.744;2023-08-06T08:22:43;9.35;;;7.38;;
48951;SDS011;34758;42.148;24.744;2023-08-06T08:25:12;8.77;;;7.75;;
48951;SDS011;34758;42.148;24.744;2023-08-06T08:27:39;9.50;;;7.70;;
48951;SDS011;34758;42.148;24.744;2023-08-06T08:30:07;9.07;;;6.90;;
48951;SDS011;34758;42.148;24.744;2023-08-06T08:32:35;12.55;;;7.55;;
48951;SDS011;34758;42.148;24.744;2023-08-06T08:35:03;8.32;;;7.03;;
48951;SDS011;34758;42.148;24.744;2023-08-06T08:37:30;10.60;;;7.80;;
48951;SDS011;34758;42.148;24.744;2023-08-06T08:39:58;10.35;;;7.57;;
48951;SDS011;34758;42.148;24.744;2023-08-06T08:42:26;12.13;;;7.50;;
48951;SDS011;34758;42.148;24.744;2023-08-06T08:44:53;9.45;;;7.97;;
48951;SDS011;34758;42.148;24.744;2023-08-06T08:47:22;10.95;;;7.82;;
48951;SDS011;34758;42.148;24.744;2023-08-06T08:49:52;10.40;;;8.80;;
48951;SDS011;34758;42.148;24.744;2023-08-06T08:52:21;8.47;;;7.47;;
48951;SDS011;34758;42.148;24.744;2023-08-06T08:54:49;11.75;;;8.20;;
48951;SDS011;34758;42.148;24.744;2023-08-06T08:57:18;11.05;;;7.80;;
48951;SDS011;34758;42.148;24.744;2023-08-06T08:59:45;10.20;;;7.75;;
48951;SDS011;34758;42.148;24.744;2023-08-06T09:02:12;9.40;;;8.50;;
48951;SDS011;34758;42.148;24.744;2023-08-06T09:04:41;8.55;;;7.60;;
48951;SDS011;34758;42.148;24.744;2023-08-06T09:07:09;8.45;;;7.53;;
48951;SDS011;34758;42.148;24.744;2023-08-06T09:09:38;9.05;;;8.07;;
48951;SDS011;34758;42.148;24.744;2023-08-06T09:12:09;9.32;;;8.27;;
48951;SDS011;34758;42.148;24.744;2023-08-06T09:14:39;8.43;;;6.28;;
48951;SDS011;34758;42.148;24.744;2023-08-06T09:17:12;7.20;;;6.57;;
48951;SDS011;34758;42.148;24.744;2023-08-06T09:19:43;8.70;;;6.95;;
48951;SDS011;34758;42.148;24.744;2023-08-06T09:22:12;6.40;;;5.40;;
48951;SDS011;34758;42.148;24.744;2023-08-06T09:24:41;5.70;;;5.18;;
48951;SDS011;34758;42.148;24.744;2023-08-06T09:27:12;5.88;;;5.38;;
48951;SDS011;34758;42.148;24.744;2023-08-06T09:29:41;4.70;;;4.22;;
48951;SDS011;34758;42.148;24.744;2023-08-06T09:32:12;4.28;;;3.88;;
48951;SDS011;34758;42.148;24.744;2023-08-06T09:34:41;4.65;;;4.25;;
48951;SDS011;34758;42.148;24.744;2023-08-06T09:37:09;3.92;;;3.53;;
48951;SDS011;34758;42.148;24.744;2023-08-06T09:39:38;3.28;;;2.97;;
48951;SDS011;34758;42.148;24.744;2023-08-06T09:42:05;3.17;;;2.90;;
48951;SDS011;34758;42.148;24.744;2023-08-06T09:44:35;3.30;;;2.83;;
48951;SDS011;34758;42.148;24.744;2023-08-06T09:47:04;3.17;;;2.88;;
48951;SDS011;34758;42.148;24.744;2023-08-06T09:49:40;3.42;;;2.70;;
48951;SDS011;34758;42.148;24.744;2023-08-06T09:52:12;2.88;;;2.67;;
48951;SDS011;34758;42.148;24.744;2023-08-06T09:54:41;3.22;;;2.95;;
48951;SDS011;34758;42.148;24.744;2023-08-06T09:57:09;3.83;;;3.53;;
48951;SDS011;34758;42.148;24.744;2023-08-06T09:59:39;3.95;;;3.60;;
48951;SDS011;34758;42.148;24.744;2023-08-06T10:02:12;4.60;;;4.05;;
48951;SDS011;34758;42.148;24.744;2023-08-06T10:04:39;4.40;;;4.07;;
48951;SDS011;34758;42.148;24.744;2023-08-06T10:07:06;5.97;;;5.43;;
48951;SDS011;34758;42.148;24.744;2023-08-06T10:09:36;6.15;;;5.55;;
48951;SDS011;34758;42.148;24.744;2023-08-06T10:12:03;8.23;;;5.63;;
48951;SDS011;34758;42.148;24.744;2023-08-06T10:14:32;5.68;;;5.18;;
48951;SDS011;34758;42.148;24.744;2023-08-06T10:17:00;6.32;;;4.47;;
48951;SDS011;34758;42.148;24.744;2023-08-06T10:19:28;5.90;;;5.40;;
48951;SDS011;34758;42.148;24.744;2023-08-06T10:22:10;5.53;;;5.13;;
48951;SDS011;34758;42.148;24.744;2023-08-06T10:24:48;5.88;;;4.95;;
48951;SDS011;34758;42.148;24.744;2023-08-06T10:27:19;5.35;;;4.85;;
48951;SDS011;34758;42.148;24.744;2023-08-06T10:29:50;4.50;;;4.20;;
48951;SDS011;34758;42.148;24.744;2023-08-06T10:32:17;5.60;;;4.15;;
48951;SDS011;34758;42.148;24.744;2023-08-06T10:34:57;6.00;;;4.32;;
48951;SDS011;34758;42.148;24.744;2023-08-06T10:37:34;5.55;;;5.03;;
48951;SDS011;34758;42.148;24.744;2023-08-06T10:40:03;4.97;;;4.57;;
48951;SDS011;34758;42.148;24.744;2023-08-06T10:42:35;4.38;;;3.97;;
48951;SDS011;34758;42.148;24.744;2023-08-06T10:45:14;4.22;;;3.80;;
48951;SDS011;34758;42.148;24.744;2023-08-06T10:47:42;4.75;;;4.35;;
48951;SDS011;34758;42.148;24.744;2023-08-06T10:50:13;4.55;;;4.05;;
48951;SDS011;34758;42.148;24.744;2023-08-06T10:52:42;3.93;;;3.63;;
48951;SDS011;34758;42.148;24.744;2023-08-06T10:55:12;4.82;;;4.00;;
48951;SDS011;34758;42.148;24.744;2023-08-06T10:57:40;4.00;;;3.70;;
48951;SDS011;34758;42.148;24.744;2023-08-06T11:00:08;3.63;;;3.40;;
48951;SDS011;34758;42.148;24.744;2023-08-06T11:02:39;4.97;;;4.28;;
48951;SDS011;34758;42.148;24.744;2023-08-06T11:05:06;5.50;;;4.00;;
48951;SDS011;34758;42.148;24.744;2023-08-06T11:07:34;4.85;;;4.15;;
48951;SDS011;34758;42.148;24.744;2023-08-06T11:10:03;4.10;;;3.80;;
48951;SDS011;34758;42.148;24.744;2023-08-06T11:12:34;3.90;;;3.60;;
48951;SDS011;34758;42.148;24.744;2023-08-06T11:15:03;3.90;;;3.50;;
48951;SDS011;34758;42.148;24.744;2023-08-06T11:17:32;3.65;;;3.33;;
48951;SDS011;34758;42.148;24.744;2023-08-06T11:20:00;4.18;;;3.53;;
48951;SDS011;34758;42.148;24.744;2023-08-06T11:22:28;3.97;;;3.67;;
48951;SDS011;34758;42.148;24.744;2023-08-06T11:24:56;3.80;;;3.50;;
48951;SDS011;34758;42.148;24.744;2023-08-06T11:27:27;3.42;;;3.13;;
48951;SDS011;34758;42.148;24.744;2023-08-06T11:29:56;3.85;;;3.47;;
48951;SDS011;34758;42.148;24.744;2023-08-06T11:32:25;3.47;;;3.28;;
48951;SDS011;34758;42.148;24.744;2023-08-06T11:34:53;4.82;;;3.40;;
48951;SDS011;34758;42.148;24.744;2023-08-06T11:37:21;3.72;;;3.25;;
48951;SDS011;34758;42.148;24.744;2023-08-06T11:39:50;3.17;;;2.88;;
48951;SDS011;34758;42.148;24.744;2023-08-06T11:42:18;2.78;;;2.58;;
48951;SDS011;34758;42.148;24.744;2023-08-06T11:44:45;4.60;;;3.08;;
48951;SDS011;34758;42.148;24.744;2023-08-06T11:47:16;3.63;;;2.80;;
48951;SDS011;34758;42.148;24.744;2023-08-06T11:49:44;3.07;;;2.73;;
48951;SDS011;34758;42.148;24.744;2023-08-06T11:52:16;2.20;;;2.10;;
48951;SDS011;34758;42.148;24.744;2023-08-06T11:54:46;2.35;;;2.17;;
48951;SDS011;34758;42.148;24.744;2023-08-06T11:57:15;2.50;;;2.30;;
48951;SDS011;34758;42.148;24.744;2023-08-06T11:59:43;1.95;;;1.83;;
48951;SDS011;34758;42.148;24.744;2023-08-06T12:02:10;2.28;;;1.73;;
48951;SDS011;34758;42.148;24.744;2023-08-06T12:07:32;3.22;;;2.13;;
48951;SDS011;34758;42.148;24.744;2023-08-06T12:09:59;3.83;;;1.92;;
48951;SDS011;34758;42.148;24.744;2023-08-06T12:12:27;2.42;;;1.85;;
48951;SDS011;34758;42.148;24.744;2023-08-06T12:14:57;1.80;;;1.70;;
48951;SDS011;34758;42.148;24.744;2023-08-06T12:17:26;1.70;;;1.60;;
48951;SDS011;34758;42.148;24.744;2023-08-06T12:19:53;2.58;;;1.85;;
48951;SDS011;34758;42.148;24.744;2023-08-06T12:22:28;2.22;;;1.80;;
48951;SDS011;34758;42.148;24.744;2023-08-06T12:25:00;2.58;;;1.45;;
48951;SDS011;34758;42.148;24.744;2023-08-06T12:27:27;2.43;;;1.80;;
48951;SDS011;34758;42.148;24.744;2023-08-06T12:29:55;1.75;;;1.65;;
48951;SDS011;34758;42.148;24.744;2023-08-06T12:32:23;2.22;;;1.60;;
48951;SDS011;34758;42.148;24.744;2023-08-06T12:34:50;1.75;;;1.40;;
48951;SDS011;34758;42.148;24.744;2023-08-06T12:37:17;2.65;;;1.60;;
48951;SDS011;34758;42.148;24.744;2023-08-06T12:39:49;2.72;;;1.80;;
48951;SDS011;34758;42.148;24.744;2023-08-06T12:42:19;4.55;;;1.40;;
48951;SDS011;34758;42.148;24.744;2023-08-06T12:44:46;2.03;;;1.80;;
48951;SDS011;34758;42.148;24.744;2023-08-06T12:47:16;2.10;;;1.75;;
48951;SDS011;34758;42.148;24.744;2023-08-06T12:49:46;3.42;;;2.03;;
48951;SDS011;34758;42.148;24.744;2023-08-06T12:52:14;4.00;;;1.75;;
48951;SDS011;34758;42.148;24.744;2023-08-06T12:54:45;1.95;;;1.75;;
48951;SDS011;34758;42.148;24.744;2023-08-06T12:57:14;3.75;;;1.80;;
48951;SDS011;34758;42.148;24.744;2023-08-06T12:59:40;4.13;;;1.77;;
48951;SDS011;34758;42.148;24.744;2023-08-06T13:02:09;1.52;;;1.40;;
48951;SDS011;34758;42.148;24.744;2023-08-06T13:04:38;2.33;;;1.50;;
48951;SDS011;34758;42.148;24.744;2023-08-06T13:07:06;2.00;;;1.80;;
48951;SDS011;34758;42.148;24.744;2023-08-06T13:09:35;1.83;;;1.33;;
48951;SDS011;34758;42.148;24.744;2023-08-06T13:12:03;2.25;;;1.80;;
48951;SDS011;34758;42.148;24.744;2023-08-06T13:14:34;2.08;;;1.33;;
48951;SDS011;34758;42.148;24.744;2023-08-06T13:17:01;1.55;;;1.45;;
48951;SDS011;34758;42.148;24.744;2023-08-06T13:19:31;3.05;;;1.60;;
48951;SDS011;34758;42.148;24.744;2023-08-06T13:22:02;1.70;;;1.60;;
48951;SDS011;34758;42.148;24.744;2023-08-06T13:24:33;2.13;;;1.83;;
48951;SDS011;34758;42.148;24.744;2023-08-06T13:27:00;1.60;;;1.40;;
48951;SDS011;34758;42.148;24.744;2023-08-06T13:29:30;1.80;;;1.60;;
48951;SDS011;34758;42.148;24.744;2023-08-06T13:32:12;1.85;;;1.30;;
48951;SDS011;34758;42.148;24.744;2023-08-06T13:34:40;2.10;;;1.10;;
48951;SDS011;34758;42.148;24.744;2023-08-06T13:37:07;1.60;;;1.23;;
48951;SDS011;34758;42.148;24.744;2023-08-06T13:39:34;2.00;;;1.60;;
48951;SDS011;34758;42.148;24.744;2023-08-06T13:42:04;1.67;;;1.48;;
48951;SDS011;34758;42.148;24.744;2023-08-06T13:44:31;3.65;;;1.38;;
48951;SDS011;34758;42.148;24.744;2023-08-06T13:47:02;1.30;;;1.20;;
48951;SDS011;34758;42.148;24.744;2023-08-06T13:49:30;1.13;;;1.07;;
48951;SDS011;34758;42.148;24.744;2023-08-06T13:51:57;1.67;;;1.20;;
48951;SDS011;34758;42.148;24.744;2023-08-06T13:54:24;3.00;;;1.42;;
48951;SDS011;34758;42.148;24.744;2023-08-06T13:56:52;1.90;;;1.05;;
48951;SDS011;34758;42.148;24.744;2023-08-06T13:59:19;1.30;;;1.00;;
48951;SDS011;34758;42.148;24.744;2023-08-06T14:01:49;3.22;;;0.85;;
48951;SDS011;34758;42.148;24.744;2023-08-06T14:04:25;1.33;;;1.10;;
48951;SDS011;34758;42.148;24.744;2023-08-06T14:06:52;2.45;;;1.10;;
48951;SDS011;34758;42.148;24.744;2023-08-06T14:09:20;0.70;;;0.70;;
48951;SDS011;34758;42.148;24.744;2023-08-06T14:11:47;1.10;;;0.98;;
48951;SDS011;34758;42.148;24.744;2023-08-06T14:14:15;2.05;;;0.88;;
48951;SDS011;34758;42.148;24.744;2023-08-06T14:16:43;2.08;;;1.15;;
48951;SDS011;34758;42.148;24.744;2023-08-06T14:19:11;2.13;;;1.05;;
48951;SDS011;34758;42.148;24.744;2023-08-06T14:21:40;1.55;;;1.08;;
48951;SDS011;34758;42.148;24.744;2023-08-06T14:24:08;1.15;;;1.08;;
48951;SDS011;34758;42.148;24.744;2023-08-06T14:26:36;1.20;;;1.00;;
48951;SDS011;34758;42.148;24.744;2023-08-06T14:29:04;1.42;;;1.10;;
48951;SDS011;34758;42.148;24.744;2023-08-06T14:31:33;2.50;;;1.13;;
48951;SDS011;34758;42.148;24.744;2023-08-06T14:34:01;1.48;;;1.38;;
48951;SDS011;34758;42.148;24.744;2023-08-06T14:36:28;1.85;;;1.30;;
48951;SDS011;34758;42.148;24.744;2023-08-06T14:39:01;2.15;;;1.17;;
48951;SDS011;34758;42.148;24.744;2023-08-06T14:41:28;1.30;;;1.20;;
48951;SDS011;34758;42.148;24.744;2023-08-06T14:43:55;1.35;;;1.20;;